Aquarius Ace — 3FHB8 — position and weather

sailwx.info

Track history (hours):
 
Tides and Currents Weather Stations Pressure Air Temp Water Temp Dewpoint Dewpoint Depression Visibility Wind Speed Wind Dir Waves Ship Positions

Aquarius Ace

Last reported at 2018-Jan-21 01:49 UTC. Time now 2018-Jan-22 00:37 UTC.
Position N 36°15' W 007°49'.

Length 174 m; draft 7.7 m.

Type: Cargo ship. MMSI: 354123000.

Date/timePositionNaut miles runAvg speedWind from/ knotsBaromVisibWave heightAir tempDewpointWater temp
2018-Jan-21 01:49N 36°15' W 007°49'617.3
2018-Jan-21 01:30N 36°16' W 007°56'817.2
2018-Jan-21 01:00N 36°18' W 008°06'816.9
2018-Jan-21 00:30N 36°21' W 008°16'816.7
2018-Jan-21 00:00N 36°23' W 008°26'916.8
2018-Jan-20 23:29N 36°25' W 008°36'816.7
2018-Jan-20 23:00N 36°27' W 008°46'1016.9
2018-Jan-20 22:24N 36°30' W 008°58'1316.8
2018-Jan-20 21:37N 36°33' W 009°14'216.7
2018-Jan-20 21:31N 36°34' W 009°16'816.7
2018-Jan-20 21:00N 36°39' W 009°24'817.0
2018-Jan-20 20:30N 36°46' W 009°31'817.0
2018-Jan-20 20:00N 36°54' W 009°35'917.4
2018-Jan-20 19:31N 37°02' W 009°37'917.1
2018-Jan-20 19:01N 37°10' W 009°41'917.1
2018-Jan-20 18:30N 37°18' W 009°43'917.2
2018-Jan-20 18:01N 37°27' W 009°45'917.3
2018-Jan-20 17:30N 37°35' W 009°46'817.0
2018-Jan-20 17:00N 37°44' W 009°48'917.1
2018-Jan-20 16:30N 37°52' W 009°50'816.9
2018-Jan-20 16:00N 38°00' W 009°52'917.2
2018-Jan-20 15:30N 38°09' W 009°55'917.2
2018-Jan-20 15:00N 38°17' W 009°58'917.2
2018-Jan-20 14:30N 38°26' W 010°00'917.2
2018-Jan-20 14:00N 38°34' W 010°03'917.3
2018-Jan-20 13:30N 38°42' W 010°06'817.0
2018-Jan-20 13:00N 38°51' W 010°06'816.6
2018-Jan-20 12:30N 38°59' W 010°06'917.0
2018-Jan-20 12:00N 39°08' W 010°06'917.0
2018-Jan-20 11:30N 39°16' W 010°06'916.9
2018-Jan-20 11:00N 39°25' W 010°06'917.1
2018-Jan-20 10:29N 39°34' W 010°06'817.0
2018-Jan-20 10:00N 39°42' W 010°06'916.9
2018-Jan-20 09:30N 39°50' W 010°06'917.1
2018-Jan-20 08:58N 39°59' W 010°06'816.8
2018-Jan-20 08:30N 40°07' W 010°06'816.9
2018-Jan-20 08:00N 40°16' W 010°06'1816.9
2018-Jan-20 06:57N 40°33' W 010°06'61414.2
2018-Jan-18 11:46N 49°43' W 003°38'412.6
2018-Jan-18 11:28N 49°44' W 003°33'512.1
2018-Jan-18 11:00N 49°46' W 003°25'611.5
2018-Jan-18 10:30N 49°49' W 003°17'510.3
2018-Jan-18 10:00N 49°52' W 003°11'4 8.5
2018-Jan-18 09:30N 49°54' W 003°05'4 7.6
2018-Jan-18 09:00N 49°56' W 002°60'4 7.0
2018-Jan-18 08:30N 49°57' W 002°55'3 6.5
2018-Jan-18 08:00N 49°59' W 002°50'3 5.9
2018-Jan-18 07:30N 49°59' W 002°46'3 5.4
2018-Jan-18 07:00N 49°60' W 002°42'3 5.1
2018-Jan-18 06:30N 50°00' W 002°38'2 4.0
2018-Jan-18 06:00N 50°01' W 002°35'2 4.2
2018-Jan-18 05:30N 50°01' W 002°32'2 3.7
2018-Jan-18 05:00N 50°02' W 002°29'3 4.4
2018-Jan-18 04:15N 50°03' W 002°24'  
2018-Jan-12 14:55N 54°59' W 001°28'0 0.0
2018-Jan-12 14:25N 54°59' W 001°28'0 0.0
2018-Jan-12 13:55N 54°59' W 001°28'0 0.0
2018-Jan-12 13:25N 54°59' W 001°28'0 0.0
2018-Jan-12 12:55N 54°59' W 001°28'0 0.0
2018-Jan-12 12:25N 54°59' W 001°28'0 0.0
2018-Jan-12 11:55N 54°59' W 001°28'0 0.0
2018-Jan-12 11:28N 54°59' W 001°28'0 0.0
2018-Jan-12 10:58N 54°59' W 001°28'0 0.0
2018-Jan-12 10:28N 54°59' W 001°28'0 0.0
2018-Jan-12 09:58N 54°59' W 001°28'0 0.0
2018-Jan-12 09:28N 54°59' W 001°28'0 0.0
2018-Jan-12 08:58N 54°59' W 001°28'0 0.0
2018-Jan-12 08:28N 54°59' W 001°28'0 0.0
2018-Jan-12 07:58N 54°59' W 001°28'0 0.0
2018-Jan-12 07:28N 54°59' W 001°28'0 0.0
2018-Jan-12 06:58N 54°59' W 001°28'0 0.0
2018-Jan-12 06:28N 54°59' W 001°28'0 0.0
2018-Jan-12 05:58N 54°59' W 001°28'0 0.0
2018-Jan-12 05:28N 54°59' W 001°28'0 0.0
2018-Jan-12 04:58N 54°59' W 001°28'0 0.0
2018-Jan-12 04:28N 54°59' W 001°28'0 0.0
2018-Jan-12 03:58N 54°59' W 001°28'0 0.0
2018-Jan-12 03:28N 54°59' W 001°28'0 0.0
2018-Jan-12 02:58N 54°59' W 001°28'0 0.0
2018-Jan-12 02:28N 54°59' W 001°28'0 0.0
2018-Jan-12 01:58N 54°59' W 001°28'0 0.0
2018-Jan-12 01:28N 54°59' W 001°28'0 0.0
2018-Jan-12 00:58N 54°59' W 001°28'0 0.0
2018-Jan-12 00:28N 54°59' W 001°28'0 0.0
2018-Jan-11 23:58N 54°59' W 001°28'0 0.0
2018-Jan-11 23:28N 54°59' W 001°28'0 0.0
2018-Jan-11 22:58N 54°59' W 001°28'0 0.0
2018-Jan-11 22:28N 54°59' W 001°28'0 0.0
2018-Jan-11 21:58N 54°59' W 001°28'0 0.0
2018-Jan-11 21:28N 54°59' W 001°28'0 0.0
2018-Jan-11 20:58N 54°59' W 001°28'0 0.0
2018-Jan-11 20:28N 54°59' W 001°28'0 0.0
2018-Jan-11 19:52N 54°59' W 001°28'0 0.0
2018-Jan-11 19:28N 54°59' W 001°28'0 0.0
2018-Jan-11 18:52N 54°59' W 001°28'0 0.0
2018-Jan-11 18:28N 54°59' W 001°28'0 0.0
2018-Jan-11 17:55N 54°59' W 001°28'0 0.0
2018-Jan-11 17:22N 54°59' W 001°28'0 0.0
2018-Jan-11 16:58N 54°59' W 001°28'0 0.0
2018-Jan-11 16:28N 54°59' W 001°28'0 0.0
2018-Jan-11 15:58N 54°59' W 001°28'0 0.0
2018-Jan-11 15:25N 54°59' W 001°28'0 0.0
2018-Jan-11 14:58N 54°59' W 001°28'0 0.0
2018-Jan-11 14:25N 54°59' W 001°28'0 0.0
2018-Jan-11 13:55N 54°59' W 001°28'0 0.0
2018-Jan-11 13:28N 54°59' W 001°28'0 0.0
2018-Jan-11 12:55N 54°59' W 001°28'0 0.0
2018-Jan-11 12:31N 54°59' W 001°28'0 0.0
2018-Jan-11 12:01N 54°59' W 001°28'0 0.0
2018-Jan-11 11:31N 54°59' W 001°28'0 0.0
2018-Jan-11 10:57N 54°59' W 001°28'0 0.0
2018-Jan-11 10:30N 54°59' W 001°28'0 0.0
2018-Jan-11 10:00N 54°59' W 001°28'0 0.0
2018-Jan-11 09:30N 54°59' W 001°28'0 0.0
2018-Jan-11 09:00N 54°59' W 001°28'0 0.0
2018-Jan-11 08:30N 54°59' W 001°28'0 0.0
2018-Jan-11 08:00N 54°59' W 001°28'0 0.0
2018-Jan-11 07:30N 54°59' W 001°28'0 0.0
2018-Jan-11 07:00N 54°59' W 001°28'0 0.0
2018-Jan-11 06:30N 54°59' W 001°28'0 0.0
2018-Jan-11 05:57N 54°59' W 001°28'0 0.0
2018-Jan-11 05:27N 54°59' W 001°28'0 0.0
2018-Jan-11 05:00N 54°59' W 001°28'0 0.0
2018-Jan-11 04:30N 54°59' W 001°28'0 0.0
2018-Jan-11 04:00N 54°59' W 001°28'0 0.0
2018-Jan-11 03:30N 54°59' W 001°28'0 0.0
2018-Jan-11 03:00N 54°59' W 001°28'0 0.0
2018-Jan-11 02:30N 54°59' W 001°28'0 0.0
2018-Jan-11 02:00N 54°59' W 001°28'  
Track history (hours):
 
Tides and Currents Weather Stations Pressure Air Temp Water Temp Dewpoint Dewpoint Depression Visibility Wind Speed Wind Dir Waves Ship Positions

Aquarius Ace

Last reported at 2018-Jan-21 01:49 UTC. Time now 2018-Jan-22 00:37 UTC.
Position N 36°15' W 007°49'.

Length 174 m; draft 7.7 m.

Type: Cargo ship. MMSI: 354123000.

Date/timePositionNaut miles runAvg speedWind from/ knotsBaromVisibWave heightAir tempDewpointWater temp
2018-Jan-21 01:49N 36°15' W 007°49'617.3
2018-Jan-21 01:30N 36°16' W 007°56'817.2
2018-Jan-21 01:00N 36°18' W 008°06'816.9
2018-Jan-21 00:30N 36°21' W 008°16'816.7
2018-Jan-21 00:00N 36°23' W 008°26'916.8
2018-Jan-20 23:29N 36°25' W 008°36'816.7
2018-Jan-20 23:00N 36°27' W 008°46'1016.9
2018-Jan-20 22:24N 36°30' W 008°58'1316.8
2018-Jan-20 21:37N 36°33' W 009°14'216.7
2018-Jan-20 21:31N 36°34' W 009°16'816.7
2018-Jan-20 21:00N 36°39' W 009°24'817.0
2018-Jan-20 20:30N 36°46' W 009°31'817.0
2018-Jan-20 20:00N 36°54' W 009°35'917.4
2018-Jan-20 19:31N 37°02' W 009°37'917.1
2018-Jan-20 19:01N 37°10' W 009°41'917.1
2018-Jan-20 18:30N 37°18' W 009°43'917.2
2018-Jan-20 18:01N 37°27' W 009°45'917.3
2018-Jan-20 17:30N 37°35' W 009°46'817.0
2018-Jan-20 17:00N 37°44' W 009°48'917.1
2018-Jan-20 16:30N 37°52' W 009°50'816.9
2018-Jan-20 16:00N 38°00' W 009°52'917.2
2018-Jan-20 15:30N 38°09' W 009°55'917.2
2018-Jan-20 15:00N 38°17' W 009°58'917.2
2018-Jan-20 14:30N 38°26' W 010°00'917.2
2018-Jan-20 14:00N 38°34' W 010°03'917.3
2018-Jan-20 13:30N 38°42' W 010°06'817.0
2018-Jan-20 13:00N 38°51' W 010°06'816.6
2018-Jan-20 12:30N 38°59' W 010°06'917.0
2018-Jan-20 12:00N 39°08' W 010°06'917.0
2018-Jan-20 11:30N 39°16' W 010°06'916.9
2018-Jan-20 11:00N 39°25' W 010°06'917.1
2018-Jan-20 10:29N 39°34' W 010°06'817.0
2018-Jan-20 10:00N 39°42' W 010°06'916.9
2018-Jan-20 09:30N 39°50' W 010°06'917.1
2018-Jan-20 08:58N 39°59' W 010°06'816.8
2018-Jan-20 08:30N 40°07' W 010°06'816.9
2018-Jan-20 08:00N 40°16' W 010°06'1816.9
2018-Jan-20 06:57N 40°33' W 010°06'61414.2
2018-Jan-18 11:46N 49°43' W 003°38'412.6
2018-Jan-18 11:28N 49°44' W 003°33'512.1
2018-Jan-18 11:00N 49°46' W 003°25'611.5
2018-Jan-18 10:30N 49°49' W 003°17'510.3
2018-Jan-18 10:00N 49°52' W 003°11'4 8.5
2018-Jan-18 09:30N 49°54' W 003°05'4 7.6
2018-Jan-18 09:00N 49°56' W 002°60'4 7.0
2018-Jan-18 08:30N 49°57' W 002°55'3 6.5
2018-Jan-18 08:00N 49°59' W 002°50'3 5.9
2018-Jan-18 07:30N 49°59' W 002°46'3 5.4
2018-Jan-18 07:00N 49°60' W 002°42'3 5.1
2018-Jan-18 06:30N 50°00' W 002°38'2 4.0
2018-Jan-18 06:00N 50°01' W 002°35'2 4.2
2018-Jan-18 05:30N 50°01' W 002°32'2 3.7
2018-Jan-18 05:00N 50°02' W 002°29'3 4.4
2018-Jan-18 04:15N 50°03' W 002°24'  
2018-Jan-12 14:55N 54°59' W 001°28'0 0.0
2018-Jan-12 14:25N 54°59' W 001°28'0 0.0
2018-Jan-12 13:55N 54°59' W 001°28'0 0.0
2018-Jan-12 13:25N 54°59' W 001°28'0 0.0
2018-Jan-12 12:55N 54°59' W 001°28'0 0.0
2018-Jan-12 12:25N 54°59' W 001°28'0 0.0
2018-Jan-12 11:55N 54°59' W 001°28'0 0.0
2018-Jan-12 11:28N 54°59' W 001°28'0 0.0
2018-Jan-12 10:58N 54°59' W 001°28'0 0.0
2018-Jan-12 10:28N 54°59' W 001°28'0 0.0
2018-Jan-12 09:58N 54°59' W 001°28'0 0.0
2018-Jan-12 09:28N 54°59' W 001°28'0 0.0
2018-Jan-12 08:58N 54°59' W 001°28'0 0.0
2018-Jan-12 08:28N 54°59' W 001°28'0 0.0
2018-Jan-12 07:58N 54°59' W 001°28'0 0.0
2018-Jan-12 07:28N 54°59' W 001°28'0 0.0
2018-Jan-12 06:58N 54°59' W 001°28'0 0.0
2018-Jan-12 06:28N 54°59' W 001°28'0 0.0
2018-Jan-12 05:58N 54°59' W 001°28'0 0.0
2018-Jan-12 05:28N 54°59' W 001°28'0 0.0
2018-Jan-12 04:58N 54°59' W 001°28'0 0.0
2018-Jan-12 04:28N 54°59' W 001°28'0 0.0
2018-Jan-12 03:58N 54°59' W 001°28'0 0.0
2018-Jan-12 03:28N 54°59' W 001°28'0 0.0
2018-Jan-12 02:58N 54°59' W 001°28'0 0.0
2018-Jan-12 02:28N 54°59' W 001°28'0 0.0
2018-Jan-12 01:58N 54°59' W 001°28'0 0.0
2018-Jan-12 01:28N 54°59' W 001°28'0 0.0
2018-Jan-12 00:58N 54°59' W 001°28'0 0.0
2018-Jan-12 00:28N 54°59' W 001°28'0 0.0
2018-Jan-11 23:58N 54°59' W 001°28'0 0.0
2018-Jan-11 23:28N 54°59' W 001°28'0 0.0
2018-Jan-11 22:58N 54°59' W 001°28'0 0.0
2018-Jan-11 22:28N 54°59' W 001°28'0 0.0
2018-Jan-11 21:58N 54°59' W 001°28'0 0.0
2018-Jan-11 21:28N 54°59' W 001°28'0 0.0
2018-Jan-11 20:58N 54°59' W 001°28'0 0.0
2018-Jan-11 20:28N 54°59' W 001°28'0 0.0
2018-Jan-11 19:52N 54°59' W 001°28'0 0.0
2018-Jan-11 19:28N 54°59' W 001°28'0 0.0
2018-Jan-11 18:52N 54°59' W 001°28'0 0.0
2018-Jan-11 18:28N 54°59' W 001°28'0 0.0
2018-Jan-11 17:55N 54°59' W 001°28'0 0.0
2018-Jan-11 17:22N 54°59' W 001°28'0 0.0
2018-Jan-11 16:58N 54°59' W 001°28'0 0.0
2018-Jan-11 16:28N 54°59' W 001°28'0 0.0
2018-Jan-11 15:58N 54°59' W 001°28'0 0.0
2018-Jan-11 15:25N 54°59' W 001°28'0 0.0
2018-Jan-11 14:58N 54°59' W 001°28'0 0.0
2018-Jan-11 14:25N 54°59' W 001°28'0 0.0
2018-Jan-11 13:55N 54°59' W 001°28'0 0.0
2018-Jan-11 13:28N 54°59' W 001°28'0 0.0
2018-Jan-11 12:55N 54°59' W 001°28'0 0.0
2018-Jan-11 12:31N 54°59' W 001°28'0 0.0
2018-Jan-11 12:01N 54°59' W 001°28'0 0.0
2018-Jan-11 11:31N 54°59' W 001°28'0 0.0
2018-Jan-11 10:57N 54°59' W 001°28'0 0.0
2018-Jan-11 10:30N 54°59' W 001°28'0 0.0
2018-Jan-11 10:00N 54°59' W 001°28'0 0.0
2018-Jan-11 09:30N 54°59' W 001°28'0 0.0
2018-Jan-11 09:00N 54°59' W 001°28'0 0.0
2018-Jan-11 08:30N 54°59' W 001°28'0 0.0
2018-Jan-11 08:00N 54°59' W 001°28'0 0.0
2018-Jan-11 07:30N 54°59' W 001°28'0 0.0
2018-Jan-11 07:00N 54°59' W 001°28'0 0.0
2018-Jan-11 06:30N 54°59' W 001°28'0 0.0
2018-Jan-11 05:57N 54°59' W 001°28'0 0.0
2018-Jan-11 05:27N 54°59' W 001°28'0 0.0
2018-Jan-11 05:00N 54°59' W 001°28'0 0.0
2018-Jan-11 04:30N 54°59' W 001°28'0 0.0
2018-Jan-11 04:00N 54°59' W 001°28'0 0.0
2018-Jan-11 03:30N 54°59' W 001°28'0 0.0
2018-Jan-11 03:00N 54°59' W 001°28'0 0.0
2018-Jan-11 02:30N 54°59' W 001°28'0 0.0
2018-Jan-11 02:00N 54°59' W 001°28'  

Dump ship's entire track history